createdAt,value
2022-11-30T00:01:31.106Z,2.80
2022-11-30T00:03:59.028Z,2.60
2022-11-30T00:06:26.915Z,3.90
2022-11-30T00:08:55.800Z,3.57
2022-11-30T00:11:24.444Z,3.03
2022-11-30T00:13:52.238Z,3.13
2022-11-30T00:16:20.084Z,2.87
2022-11-30T00:18:47.949Z,1.70
2022-11-30T00:21:16.414Z,2.17
2022-11-30T00:23:46.570Z,2.63
2022-11-30T00:26:18.862Z,2.30
2022-11-30T00:28:47.618Z,2.87
2022-11-30T00:31:17.445Z,2.50
2022-11-30T00:33:45.482Z,2.67
2022-11-30T00:36:14.552Z,2.00
2022-11-30T00:38:43.600Z,3.33
2022-11-30T00:41:11.716Z,3.83
2022-11-30T00:43:39.407Z,2.93
2022-11-30T00:46:09.212Z,3.10
2022-11-30T00:48:37.909Z,2.33
2022-11-30T00:51:06.024Z,2.93
2022-11-30T00:53:33.769Z,2.30
2022-11-30T00:56:01.469Z,3.17
2022-11-30T00:58:29.251Z,4.60
2022-11-30T01:00:57.257Z,3.30
2022-11-30T01:03:25.070Z,3.07
2022-11-30T01:05:52.754Z,1.77
2022-11-30T01:08:20.710Z,2.43
2022-11-30T01:10:53.311Z,2.93
2022-11-30T01:13:21.052Z,3.03
2022-11-30T01:15:48.785Z,3.30
2022-11-30T01:18:17.042Z,2.23
2022-11-30T01:20:45.061Z,3.10
2022-11-30T01:23:13.013Z,1.87
2022-11-30T01:25:40.995Z,2.33
2022-11-30T01:28:11.240Z,3.13
2022-11-30T01:30:38.935Z,1.73
2022-11-30T01:33:07.806Z,2.37
2022-11-30T01:35:35.428Z,2.10
2022-11-30T01:38:03.126Z,2.33
2022-11-30T01:40:30.835Z,2.40
2022-11-30T01:42:58.517Z,2.10
2022-11-30T01:45:26.422Z,3.13
2022-11-30T01:47:57.906Z,1.93
2022-11-30T01:50:31.730Z,2.15
2022-11-30T01:53:00.068Z,1.60
2022-11-30T01:55:32.955Z,2.73
2022-11-30T01:58:09.464Z,2.30
2022-11-30T02:00:37.253Z,2.30
2022-11-30T02:03:23.097Z,2.67
2022-11-30T02:05:50.935Z,1.73
2022-11-30T02:08:19.919Z,2.13
2022-11-30T02:10:54.633Z,1.87
2022-11-30T02:13:38.364Z,2.30
2022-11-30T02:16:39.078Z,2.47
2022-11-30T02:19:15.811Z,2.40
2022-11-30T02:22:04.813Z,2.53
2022-11-30T02:24:51.929Z,2.33
2022-11-30T02:27:47.071Z,1.63
2022-11-30T02:30:17.715Z,1.50
2022-11-30T02:33:04.180Z,1.70
2022-11-30T02:35:35.884Z,2.87
2022-11-30T02:38:05.603Z,1.25
2022-11-30T02:40:33.386Z,3.23
2022-11-30T02:43:03.425Z,1.30
2022-11-30T02:45:42.925Z,2.57
2022-11-30T02:48:13.396Z,1.30
2022-11-30T02:50:48.277Z,1.57
2022-11-30T02:53:15.970Z,1.70
2022-11-30T02:55:43.740Z,2.33
2022-11-30T02:58:11.926Z,2.23
2022-11-30T03:00:39.654Z,1.57
2022-11-30T03:03:07.495Z,1.70
2022-11-30T03:05:35.431Z,0.63
2022-11-30T03:08:03.137Z,1.97
2022-11-30T03:10:30.793Z,1.60
2022-11-30T03:12:59.651Z,1.47
2022-11-30T03:15:28.221Z,1.37
2022-11-30T03:17:55.874Z,1.90
2022-11-30T03:20:23.573Z,1.60
2022-11-30T03:22:51.255Z,1.30
2022-11-30T03:25:18.977Z,2.03
2022-11-30T03:27:46.637Z,2.03
2022-11-30T03:30:14.570Z,1.77
2022-11-30T03:32:42.252Z,1.30
2022-11-30T03:35:11.776Z,2.10
2022-11-30T03:37:39.449Z,1.67
2022-11-30T03:40:07.907Z,1.23
2022-11-30T03:42:35.642Z,1.00
2022-11-30T03:45:03.443Z,1.07
2022-11-30T03:47:31.276Z,1.07
2022-11-30T03:49:59.030Z,1.67
2022-11-30T03:52:26.675Z,1.77
2022-11-30T03:54:54.453Z,2.27
2022-11-30T03:57:22.109Z,1.27
2022-11-30T03:59:49.815Z,1.43
2022-11-30T04:02:17.487Z,1.83
2022-11-30T04:04:45.567Z,1.30
2022-11-30T04:07:13.536Z,1.83
2022-11-30T04:09:41.264Z,2.40
2022-11-30T04:12:09.214Z,2.80
2022-11-30T04:14:36.935Z,1.80
2022-11-30T04:17:04.671Z,2.20
2022-11-30T04:19:32.391Z,2.10
2022-11-30T04:22:00.056Z,2.50
2022-11-30T04:24:27.741Z,1.90
2022-11-30T04:26:55.444Z,1.50
2022-11-30T04:29:23.132Z,1.90
2022-11-30T04:31:50.823Z,2.00
2022-11-30T04:34:18.531Z,2.50
2022-11-30T04:36:46.247Z,2.27
2022-11-30T04:39:13.929Z,2.40
2022-11-30T04:41:41.602Z,1.60
2022-11-30T04:44:09.349Z,1.97
2022-11-30T04:46:38.043Z,1.80
2022-11-30T04:49:05.894Z,1.87
2022-11-30T04:51:33.604Z,1.10
2022-11-30T04:54:01.337Z,1.83
2022-11-30T04:56:29.045Z,1.77
2022-11-30T04:58:56.678Z,1.83
2022-11-30T05:01:24.428Z,2.93
2022-11-30T05:03:52.182Z,3.07
2022-11-30T05:06:19.972Z,3.10
2022-11-30T05:08:47.648Z,1.83
2022-11-30T05:11:15.331Z,1.43
2022-11-30T05:13:42.998Z,1.20
2022-11-30T05:16:10.813Z,2.57
2022-11-30T05:18:38.569Z,2.00
2022-11-30T05:21:06.890Z,2.03
2022-11-30T05:23:34.571Z,1.17
2022-11-30T05:26:05.879Z,1.77
2022-11-30T05:28:33.589Z,1.40
2022-11-30T05:31:06.138Z,2.63
2022-11-30T05:33:34.335Z,2.27
2022-11-30T05:36:04.632Z,1.73
2022-11-30T05:38:34.953Z,1.83
2022-11-30T05:41:03.523Z,1.97
2022-11-30T05:43:31.242Z,1.43
2022-11-30T05:46:03.259Z,2.07
2022-11-30T05:48:31.656Z,2.47
2022-11-30T05:51:25.938Z,3.30
2022-11-30T05:53:53.685Z,3.00
2022-11-30T05:56:22.632Z,5.47
2022-11-30T05:58:50.294Z,2.20
2022-11-30T06:01:23.403Z,2.10
2022-11-30T06:03:51.694Z,1.47
2022-11-30T06:06:19.922Z,1.27
2022-11-30T06:08:50.589Z,1.93
2022-11-30T06:11:18.630Z,1.23
2022-11-30T06:13:46.325Z,1.80
2022-11-30T06:16:14.107Z,1.83
2022-11-30T06:18:41.988Z,2.67
2022-11-30T06:21:12.206Z,1.37
2022-11-30T06:23:39.949Z,2.07
2022-11-30T06:26:13.189Z,2.57
2022-11-30T06:28:45.414Z,1.80
2022-11-30T06:31:15.852Z,2.60
2022-11-30T06:33:43.766Z,3.27
2022-11-30T06:36:11.707Z,2.70
2022-11-30T06:38:39.382Z,2.97
2022-11-30T06:41:09.290Z,1.67
2022-11-30T06:43:38.394Z,2.73
2022-11-30T06:46:07.715Z,2.33
2022-11-30T06:48:36.819Z,2.27
2022-11-30T06:51:11.588Z,2.13
2022-11-30T06:53:39.242Z,2.47
2022-11-30T06:56:10.714Z,1.60
2022-11-30T06:58:42.885Z,1.60
2022-11-30T07:01:14.196Z,2.00
2022-11-30T07:03:43.530Z,1.50
2022-11-30T07:06:16.405Z,2.47
2022-11-30T07:08:44.847Z,1.80
2022-11-30T07:11:13.422Z,2.10
2022-11-30T07:13:41.118Z,2.40
2022-11-30T07:16:11.350Z,2.60
2022-11-30T07:18:39.134Z,2.60
2022-11-30T07:21:07.894Z,2.13
2022-11-30T07:23:56.692Z,2.73
2022-11-30T07:26:25.803Z,2.67
2022-11-30T07:28:58.237Z,2.07
2022-11-30T07:31:29.496Z,1.87
2022-11-30T07:33:58.769Z,1.85
2022-11-30T07:36:30.240Z,2.60
2022-11-30T07:38:58.009Z,2.15
2022-11-30T07:41:25.785Z,1.63
2022-11-30T07:43:53.453Z,1.53
2022-11-30T07:46:21.190Z,2.37
2022-11-30T07:48:48.931Z,2.90
2022-11-30T07:51:19.172Z,2.17
2022-11-30T07:53:47.452Z,1.80
2022-11-30T07:56:21.046Z,2.27
2022-11-30T07:58:50.566Z,2.60
2022-11-30T08:01:21.559Z,1.20
2022-11-30T08:03:50.791Z,2.45
2022-11-30T08:06:23.763Z,2.43
2022-11-30T08:08:53.723Z,1.33
2022-11-30T08:11:27.079Z,1.77
2022-11-30T08:13:55.513Z,1.43
2022-11-30T08:16:26.337Z,1.20
2022-11-30T08:18:54.437Z,1.35
2022-11-30T08:21:22.591Z,1.37
2022-11-30T08:23:53.145Z,1.93
2022-11-30T08:26:32.662Z,1.47
2022-11-30T08:29:01.907Z,1.77
2022-11-30T08:31:35.317Z,1.10
2022-11-30T08:34:06.649Z,1.53
2022-11-30T08:36:34.676Z,0.93
2022-11-30T08:39:05.008Z,1.60
2022-11-30T08:41:33.560Z,1.10
2022-11-30T08:44:01.612Z,1.10
2022-11-30T08:49:21.969Z,0.97
2022-11-30T08:57:34.266Z,1.80
2022-11-30T09:00:01.980Z,1.03
2022-11-30T09:02:29.690Z,1.30
2022-11-30T09:04:57.452Z,1.27
2022-11-30T09:07:25.139Z,1.17
2022-11-30T09:09:52.888Z,0.83
2022-11-30T09:12:20.575Z,0.80
2022-11-30T09:14:55.911Z,1.17
2022-11-30T09:17:25.545Z,1.00
2022-11-30T09:19:54.695Z,0.60
2022-11-30T09:22:22.418Z,1.00
2022-11-30T09:24:50.366Z,2.30
2022-11-30T09:27:18.221Z,0.97
2022-11-30T09:29:45.944Z,0.70
2022-11-30T09:32:13.678Z,1.63
2022-11-30T09:34:41.350Z,1.13
2022-11-30T09:37:09.377Z,1.20
2022-11-30T09:39:37.074Z,0.93
2022-11-30T09:42:33.273Z,1.47
2022-11-30T09:45:14.846Z,1.30
2022-11-30T09:48:14.780Z,1.27
2022-11-30T09:50:48.353Z,1.20
2022-11-30T09:53:29.938Z,0.80
2022-11-30T09:55:59.902Z,0.77
2022-11-30T09:58:59.986Z,0.67
2022-11-30T10:01:32.042Z,0.87
2022-11-30T10:04:01.627Z,1.27
2022-11-30T10:06:51.397Z,1.67
2022-11-30T10:09:40.824Z,1.40
2022-11-30T10:12:14.522Z,1.13
2022-11-30T10:14:59.842Z,1.47
2022-11-30T10:17:45.272Z,1.73
2022-11-30T10:20:23.319Z,1.40
2022-11-30T10:23:28.392Z,0.90
2022-11-30T10:26:05.590Z,1.70
2022-11-30T10:28:53.653Z,1.37
2022-11-30T10:31:35.049Z,0.73
2022-11-30T10:34:17.301Z,1.13
2022-11-30T10:39:42.714Z,1.00
2022-11-30T10:42:20.302Z,0.60
2022-11-30T10:45:06.647Z,1.43
2022-11-30T10:47:37.728Z,0.87
2022-11-30T10:50:07.215Z,0.90
2022-11-30T10:52:49.986Z,0.80
2022-11-30T10:55:24.388Z,0.80
2022-11-30T10:57:58.033Z,0.60
2022-11-30T11:00:25.938Z,0.60
2022-11-30T11:02:53.774Z,1.10
2022-11-30T11:05:26.225Z,0.87
2022-11-30T11:08:05.745Z,0.47
2022-11-30T11:10:41.093Z,0.70
2022-11-30T11:13:17.785Z,0.70
2022-11-30T11:16:00.605Z,0.67
2022-11-30T11:18:29.569Z,1.57
2022-11-30T11:21:19.946Z,0.90
2022-11-30T11:23:50.457Z,0.60
2022-11-30T11:26:21.957Z,0.93
2022-11-30T11:28:52.949Z,0.52
2022-11-30T11:31:43.246Z,0.47
2022-11-30T11:34:34.441Z,0.90
2022-11-30T11:37:18.770Z,0.60
2022-11-30T11:40:03.553Z,0.67
2022-11-30T11:42:38.480Z,0.73
2022-11-30T11:45:07.580Z,0.40
2022-11-30T11:47:41.449Z,0.90
2022-11-30T11:51:04.825Z,0.77
2022-11-30T11:53:41.363Z,1.30
2022-11-30T11:59:04.211Z,1.33
2022-11-30T12:01:41.503Z,0.80
2022-11-30T12:04:34.164Z,0.33
2022-11-30T12:07:15.042Z,0.87
2022-11-30T12:09:55.810Z,0.87
2022-11-30T12:12:23.518Z,0.20
2022-11-30T12:14:51.215Z,2.60
2022-11-30T12:17:41.642Z,0.70
2022-11-30T12:20:37.292Z,0.40
2022-11-30T12:23:14.103Z,0.47
2022-11-30T12:26:01.364Z,0.83
2022-11-30T12:28:41.191Z,0.33
2022-11-30T12:31:19.589Z,0.10
2022-11-30T12:34:25.494Z,0.47
2022-11-30T12:37:11.082Z,0.50
2022-11-30T12:39:51.845Z,0.30
2022-11-30T12:42:19.502Z,0.30
2022-11-30T12:45:07.118Z,0.80
2022-11-30T12:48:00.853Z,0.77
2022-11-30T12:50:51.774Z,0.20
2022-11-30T12:53:27.057Z,0.50
2022-11-30T12:55:59.056Z,0.43
2022-11-30T12:58:44.852Z,0.20
2022-11-30T13:01:58.748Z,0.40
2022-11-30T13:04:31.585Z,0.37
2022-11-30T13:07:04.447Z,0.47
2022-11-30T13:09:42.684Z,0.23
2022-11-30T13:12:14.931Z,0.30
2022-11-30T13:14:42.673Z,0.47
2022-11-30T13:17:18.824Z,0.43
2022-11-30T13:20:16.092Z,0.27
2022-11-30T13:23:02.072Z,1.00
2022-11-30T13:26:10.127Z,0.20
2022-11-30T13:28:43.846Z,0.30
2022-11-30T13:32:56.799Z,0.60
2022-11-30T13:35:42.715Z,0.67
2022-11-30T13:38:36.371Z,0.57
2022-11-30T13:41:07.393Z,0.10
2022-11-30T13:43:48.374Z,1.30
2022-11-30T13:46:23.670Z,0.70
2022-11-30T13:49:19.144Z,0.40
2022-11-30T13:51:53.068Z,0.20
2022-11-30T13:54:53.919Z,0.77
2022-11-30T13:59:59.375Z,0.73
2022-11-30T14:02:33.015Z,0.50
2022-11-30T14:05:18.913Z,0.40
2022-11-30T14:08:02.033Z,0.20
2022-11-30T14:10:31.593Z,0.17
2022-11-30T14:13:06.537Z,0.20
2022-11-30T14:15:40.830Z,0.30
2022-11-30T14:18:08.473Z,0.50
2022-11-30T14:21:15.079Z,0.40
2022-11-30T14:24:00.065Z,0.50
2022-11-30T14:26:37.201Z,0.43
2022-11-30T14:29:16.804Z,0.57
2022-11-30T14:32:11.518Z,0.40
2022-11-30T14:34:43.200Z,0.83
2022-11-30T14:37:20.610Z,0.38
2022-11-30T14:39:50.027Z,0.40
2022-11-30T14:42:30.117Z,0.40
2022-11-30T14:44:58.553Z,0.60
2022-11-30T14:47:35.082Z,0.57
2022-11-30T14:50:06.037Z,0.63
2022-11-30T14:52:55.880Z,0.43
2022-11-30T14:55:35.019Z,0.83
2022-11-30T14:58:21.376Z,0.70
2022-11-30T15:00:50.758Z,0.60
2022-11-30T15:03:26.776Z,0.30
2022-11-30T15:06:00.811Z,0.67
2022-11-30T15:08:36.113Z,0.33
2022-11-30T15:11:06.833Z,0.37
2022-11-30T15:13:38.787Z,0.30
2022-11-30T15:18:40.299Z,0.10
2022-11-30T15:21:15.511Z,0.90
2022-11-30T15:23:47.970Z,0.40
2022-11-30T15:26:30.326Z,0.30
2022-11-30T15:29:04.486Z,0.67
2022-11-30T15:31:39.199Z,1.13
2022-11-30T15:34:08.327Z,1.80
2022-11-30T15:36:38.608Z,1.20
2022-11-30T15:39:17.479Z,3.23
2022-11-30T15:41:45.178Z,3.37
2022-11-30T15:44:45.470Z,1.17
2022-11-30T15:47:47.216Z,1.30
2022-11-30T15:50:37.113Z,2.15
2022-11-30T15:53:26.790Z,1.17
2022-11-30T15:55:58.306Z,1.47
2022-11-30T15:58:31.943Z,0.47
2022-11-30T16:01:15.538Z,0.80
2022-11-30T16:04:04.426Z,0.97
2022-11-30T16:06:46.823Z,1.00
2022-11-30T16:09:24.014Z,0.57
2022-11-30T16:11:57.064Z,0.77
2022-11-30T16:14:24.802Z,0.90
2022-11-30T16:16:53.799Z,0.30
2022-11-30T16:19:21.836Z,0.77
2022-11-30T16:21:50.385Z,0.80
2022-11-30T16:24:18.647Z,0.87
2022-11-30T16:26:53.572Z,0.43
2022-11-30T16:29:21.579Z,2.23
2022-11-30T16:31:49.411Z,1.10
2022-11-30T16:34:17.163Z,1.03
2022-11-30T16:36:44.798Z,0.87
2022-11-30T16:39:13.769Z,1.30
2022-11-30T16:41:41.731Z,1.07
2022-11-30T16:44:14.447Z,4.20
2022-11-30T16:46:42.213Z,1.23
2022-11-30T16:49:09.950Z,0.73
2022-11-30T16:51:37.771Z,1.37
2022-11-30T16:54:05.638Z,1.37
2022-11-30T16:56:33.610Z,2.27
2022-11-30T16:59:01.294Z,1.60
2022-11-30T17:01:36.636Z,1.20
2022-11-30T17:04:19.346Z,1.70
2022-11-30T17:06:50.684Z,2.30
2022-11-30T17:09:20.766Z,1.07
2022-11-30T17:11:52.130Z,2.33
2022-11-30T17:14:22.102Z,1.17
2022-11-30T17:16:49.993Z,3.10
2022-11-30T17:19:17.828Z,2.93
2022-11-30T17:21:45.840Z,1.87
2022-11-30T17:24:13.606Z,2.80
2022-11-30T17:26:41.759Z,4.73
2022-11-30T17:29:09.494Z,4.37
2022-11-30T17:31:37.222Z,5.73
2022-11-30T17:34:05.035Z,0.93
2022-11-30T17:36:32.774Z,1.40
2022-11-30T17:39:00.469Z,8.60
2022-11-30T17:41:28.194Z,1.23
2022-11-30T17:43:55.948Z,2.20
2022-11-30T17:46:23.718Z,0.80
2022-11-30T17:48:51.495Z,1.30
2022-11-30T17:51:19.445Z,1.33
2022-11-30T17:53:47.272Z,0.80
2022-11-30T17:56:17.170Z,1.07
2022-11-30T17:58:46.309Z,1.47
2022-11-30T18:01:22.445Z,1.13
2022-11-30T18:03:50.607Z,1.13
2022-11-30T18:06:18.385Z,0.40
2022-11-30T18:08:46.371Z,0.87
2022-11-30T18:11:16.856Z,0.67
2022-11-30T18:13:44.965Z,1.53
2022-11-30T18:16:12.693Z,0.30
2022-11-30T18:18:47.115Z,0.40
2022-11-30T18:21:17.728Z,0.90
2022-11-30T18:23:46.195Z,0.80
2022-11-30T18:26:16.975Z,0.57
2022-11-30T18:28:44.932Z,0.20
2022-11-30T18:31:13.358Z,0.20
2022-11-30T18:33:41.267Z,0.20
2022-11-30T18:36:09.284Z,0.37
2022-11-30T18:38:38.963Z,0.47
2022-11-30T18:41:07.661Z,0.43
2022-11-30T18:43:35.962Z,0.53
2022-11-30T18:46:11.820Z,0.60
2022-11-30T18:48:40.878Z,0.50
2022-11-30T18:51:18.701Z,0.63
2022-11-30T18:53:46.856Z,0.67
2022-11-30T18:56:17.783Z,0.87
2022-11-30T18:58:46.377Z,0.33
2022-11-30T19:01:17.471Z,0.30
2022-11-30T19:03:50.387Z,0.20
2022-11-30T19:06:18.320Z,0.10
2022-11-30T19:08:47.672Z,0.40
2022-11-30T19:11:16.791Z,0.40
2022-11-30T19:13:45.605Z,0.30
2022-11-30T19:16:16.100Z,0.13
2022-11-30T19:18:45.003Z,0.37
2022-11-30T19:21:18.267Z,0.20
2022-11-30T19:23:46.931Z,0.20
2022-11-30T19:26:15.435Z,0.60
2022-11-30T19:28:44.812Z,0.20
2022-11-30T19:31:18.123Z,0.67
2022-11-30T19:33:50.886Z,0.37
2022-11-30T19:36:29.311Z,0.50
2022-11-30T19:38:59.316Z,0.20
2022-11-30T19:41:27.799Z,0.30
2022-11-30T19:44:02.799Z,0.20
2022-11-30T19:46:31.848Z,0.77
2022-11-30T19:49:01.814Z,0.20
2022-11-30T19:51:31.608Z,0.10
2022-11-30T19:54:00.357Z,0.20
2022-11-30T19:56:30.164Z,0.00
2022-11-30T19:59:04.043Z,0.40
2022-11-30T20:01:32.712Z,0.77
2022-11-30T20:04:00.482Z,0.50
2022-11-30T20:06:34.213Z,0.70
2022-11-30T20:09:01.982Z,1.37
2022-11-30T20:11:29.920Z,0.40
2022-11-30T20:13:58.415Z,0.60
2022-11-30T20:16:26.303Z,1.83
2022-11-30T20:18:56.892Z,1.33
2022-11-30T20:21:29.777Z,0.27
2022-11-30T20:23:59.926Z,0.70
2022-11-30T20:26:33.683Z,0.23
2022-11-30T20:29:02.938Z,0.50
2022-11-30T20:31:32.629Z,0.50
2022-11-30T20:34:00.495Z,1.13
2022-11-30T20:36:28.739Z,0.90
2022-11-30T20:38:56.447Z,0.40
2022-11-30T20:41:25.595Z,0.47
2022-11-30T20:43:53.777Z,0.13
2022-11-30T20:46:30.356Z,0.20
2022-11-30T20:48:58.826Z,0.30
2022-11-30T20:51:31.360Z,0.40
2022-11-30T20:54:05.675Z,0.20
2022-11-30T20:56:37.628Z,1.00
2022-11-30T21:01:34.945Z,0.57
2022-11-30T21:04:02.862Z,1.07
2022-11-30T21:06:31.431Z,0.70
2022-11-30T21:08:59.781Z,0.30
2022-11-30T21:11:29.063Z,0.70
2022-11-30T21:13:58.470Z,0.50
2022-11-30T21:16:29.462Z,0.67
2022-11-30T21:18:59.596Z,0.65
2022-11-30T21:21:31.187Z,0.30
2022-11-30T21:24:01.283Z,0.45
2022-11-30T21:26:35.058Z,0.73
2022-11-30T21:29:11.230Z,0.20
2022-11-30T21:31:39.089Z,0.77
2022-11-30T21:34:07.030Z,0.60
2022-11-30T21:36:34.821Z,0.60
2022-11-30T21:39:06.614Z,0.60
2022-11-30T21:41:40.219Z,0.47
2022-11-30T21:44:11.242Z,0.40
2022-11-30T21:46:39.018Z,0.50
2022-11-30T21:49:07.510Z,0.10
2022-11-30T21:51:35.519Z,0.60
2022-11-30T21:54:06.370Z,0.53
2022-11-30T21:56:36.601Z,0.60
2022-11-30T21:59:09.544Z,0.60
2022-11-30T22:01:42.196Z,0.67
2022-11-30T22:04:12.278Z,0.40
2022-11-30T22:06:41.183Z,0.53
2022-11-30T22:09:13.048Z,0.30
2022-11-30T22:14:15.522Z,0.33
2022-11-30T22:16:43.969Z,0.20
2022-11-30T22:19:11.778Z,0.17
2022-11-30T22:21:41.342Z,0.43
2022-11-30T22:24:13.451Z,0.28
2022-11-30T22:26:43.257Z,0.30
2022-11-30T22:29:17.139Z,0.40
2022-11-30T22:31:46.764Z,0.30
2022-11-30T22:34:14.875Z,0.77
2022-11-30T22:36:44.271Z,0.10
2022-11-30T22:39:22.359Z,0.20
2022-11-30T22:41:55.485Z,0.30
2022-11-30T22:44:25.547Z,0.30
2022-11-30T22:46:53.371Z,0.30
2022-11-30T22:49:22.151Z,0.13
2022-11-30T22:51:50.866Z,0.00
2022-11-30T22:54:19.132Z,0.50
2022-11-30T22:56:47.115Z,0.20
2022-11-30T22:59:16.057Z,0.27
2022-11-30T23:01:46.624Z,1.00
2022-11-30T23:04:17.099Z,0.37
2022-11-30T23:06:45.397Z,0.60
2022-11-30T23:09:16.388Z,0.10
2022-11-30T23:11:44.321Z,0.17
2022-11-30T23:14:12.402Z,0.20
2022-11-30T23:16:41.239Z,0.20
2022-11-30T23:19:09.947Z,0.27
2022-11-30T23:21:44.748Z,0.10
2022-11-30T23:24:20.259Z,0.43
2022-11-30T23:26:48.306Z,0.27
2022-11-30T23:29:17.761Z,0.20
2022-11-30T23:31:47.200Z,0.00
2022-11-30T23:34:18.541Z,0.10
2022-11-30T23:36:46.700Z,0.10
2022-11-30T23:39:17.253Z,0.27
2022-11-30T23:41:45.785Z,0.10
2022-11-30T23:44:14.129Z,0.10
2022-11-30T23:46:42.176Z,0.20
2022-11-30T23:49:09.970Z,0.03
2022-11-30T23:51:37.859Z,0.60
2022-11-30T23:54:05.996Z,0.30
2022-11-30T23:56:33.745Z,0.43
2022-11-30T23:59:01.494Z,0.40
